Time;durP1;ratioP1;P1;durP2;ratioP2;P2;SDS_P1;SDS_P2;PMS_P1;PMS_P2;Temp;Humidity;BMP_temperature;BMP_pressure;BME280_temperature;BME280_humidity;BME280_pressure;Samples;Min_cycle;Max_cycle;Signal;HPM_P1;HPM_P2
2023/02/24 00:02:13;;;;;;;34.85;2.92;;;3.70;99.90;;;2.09;97.73;100483.13;4987314;28;20038;-79
2023/02/24 00:04:42;;;;;;;25.20;3.17;;;3.70;99.90;;;2.10;97.44;100474.47;4950834;28;20038;-79
2023/02/24 00:07:11;;;;;;;27.92;3.13;;;3.70;99.90;;;2.11;97.26;100472.72;4950102;28;20029;-79
2023/02/24 00:09:38;;;;;;;31.67;3.42;;;3.70;99.90;;;2.14;97.05;100475.25;4985472;28;20064;-79
2023/02/24 00:12:12;;;;;;;29.73;3.03;;;3.70;99.90;;;2.21;97.29;100474.28;4976561;28;20054;-80
2023/02/24 00:14:41;;;;;;;16.98;2.38;;;3.80;99.90;;;2.15;97.05;100471.78;4945548;28;20034;-79
2023/02/24 00:17:17;;;;;;;28.38;3.50;;;3.70;99.90;;;2.13;96.73;100468.34;4939071;28;20426;-79
2023/02/24 00:19:43;;;;;;;;;;;3.70;99.90;;;2.10;96.38;100466.66;4947534;28;20461;-79
2023/02/24 00:22:09;;;;;;;20.33;2.95;;;3.70;99.90;;;2.15;96.17;100459.66;4987425;28;19913;-79
2023/02/24 00:24:36;;;;;;;34.70;4.13;;;3.70;99.90;;;2.19;95.73;100448.31;4977623;28;20088;-81
2023/02/24 00:27:10;;;;;;;17.67;2.63;;;3.70;99.90;;;2.11;95.09;100449.34;4983021;28;20042;-80
2023/02/24 00:29:38;;;;;;;21.42;2.40;;;3.70;99.90;;;2.05;93.99;100450.28;4946025;28;20076;-80
2023/02/24 00:32:12;;;;;;;15.93;2.00;;;3.70;99.90;;;2.07;93.05;100445.06;4961395;28;20045;-80
2023/02/24 00:34:39;;;;;;;19.17;2.75;;;3.70;99.90;;;2.05;92.73;100439.88;4949821;28;20844;-79
2023/02/24 00:37:05;;;;;;;25.75;2.53;;;3.70;99.90;;;2.07;91.50;100432.94;4956405;28;20034;-79
2023/02/24 00:39:33;;;;;;;25.60;2.95;;;3.70;99.90;;;2.03;90.90;100428.66;4953083;28;20403;-79
2023/02/24 00:42:07;;;;;;;28.90;2.70;;;3.70;99.90;;;2.08;90.50;100429.47;4922217;28;20046;-79
2023/02/24 00:44:39;;;;;;;16.65;1.65;;;3.60;99.90;;;1.99;90.29;100427.88;4963054;28;20120;-79
2023/02/24 00:47:09;;;;;;;24.65;2.92;;;3.60;99.90;;;2.01;90.55;100426.13;4983691;23;20678;-80
2023/02/24 00:49:41;;;;;;;20.20;2.63;;;3.60;99.90;;;2.03;90.60;100418.28;4943017;28;20068;-80
2023/02/24 00:52:17;;;;;;;24.25;2.88;;;3.60;99.90;;;2.02;90.59;100412.22;4982492;28;20644;-80
2023/02/24 00:54:45;;;;;;;24.88;2.78;;;3.60;99.90;;;2.05;90.72;100411.31;4997889;28;20048;-80
2023/02/24 00:57:13;;;;;;;22.67;2.88;;;3.70;99.90;;;2.07;90.68;100406.97;4958423;28;20061;-79
2023/02/24 00:59:39;;;;;;;23.13;3.15;;;3.70;99.90;;;2.06;90.50;100407.84;4970273;28;20046;-79
2023/02/24 01:02:06;;;;;;;23.20;2.50;;;3.70;99.90;;;2.06;90.28;100402.66;4932022;28;20045;-80
2023/02/24 01:04:42;;;;;;;;;;;;;;;;;;;;;
2023/02/24 01:07:10;;;;;;;23.92;2.80;;;3.70;99.90;;;2.16;90.26;100406.81;4973356;28;20881;-80
2023/02/24 01:09:38;;;;;;;17.15;2.45;;;3.70;99.90;;;2.08;90.52;100398.31;4964155;28;20505;-80
2023/02/24 01:14:54;;;;;;;21.85;2.38;;;3.70;99.90;;;2.05;90.45;100390.53;4988005;28;20114;-79
2023/02/24 01:17:21;;;;;;;24.88;2.40;;;3.70;99.90;;;2.13;90.42;100390.44;4982543;28;20037;-79
2023/02/24 01:19:50;;;;;;;20.98;2.63;;;3.70;99.90;;;2.14;90.14;100394.72;4985106;28;20049;-80
2023/02/24 01:22:20;;;;;;;22.42;2.53;;;3.70;99.90;;;2.11;90.33;100387.84;4918012;28;20030;-79
2023/02/24 01:24:46;;;;;;;28.10;3.42;;;3.70;99.90;;;2.11;90.22;100390.44;4938196;28;20044;-81
2023/02/24 01:27:17;;;;;;;19.88;3.00;;;3.70;99.90;;;2.15;90.26;100386.06;4954341;28;20035;-80
2023/02/24 01:29:46;;;;;;;19.67;2.80;;;3.70;99.90;;;2.18;89.96;100386.88;4998980;28;20025;-80
2023/02/24 01:32:17;;;;;;;9.48;2.05;;;3.70;99.90;;;1.99;88.67;100380.28;4940686;28;20044;-80
2023/02/24 01:34:53;;;;;;;25.88;2.88;;;3.70;99.90;;;1.93;87.35;100381.22;4945937;28;20042;-80
2023/02/24 01:37:19;;;;;;;13.95;1.98;;;3.50;99.90;;;1.68;86.66;100372.97;4983679;28;20038;-80
2023/02/24 01:39:57;;;;;;;16.83;1.80;;;3.40;99.90;;;1.56;86.22;100365.41;4962702;28;20042;-80
2023/02/24 01:42:23;;;;;;;9.50;1.35;;;3.30;99.90;;;1.51;85.78;100374.97;4901614;28;20041;-79
2023/02/24 01:44:50;;;;;;;18.45;2.80;;;3.30;99.90;;;1.48;86.01;100364.66;4910103;28;20046;-80
2023/02/24 01:47:20;;;;;;;15.93;3.15;;;3.30;99.90;;;1.51;85.93;100369.78;4956118;28;20092;-80
2023/02/24 01:49:50;;;;;;;23.92;2.85;;;3.30;99.90;;;1.55;86.48;100367.13;4973301;28;20410;-79
2023/02/24 01:52:25;;;;;;;19.33;2.28;;;3.30;99.90;;;1.55;86.84;100363.66;4930529;28;20037;-80
2023/02/24 01:55:04;;;;;;;12.05;1.58;;;3.20;99.90;;;1.53;86.85;100362.84;4970979;28;20649;-79
2023/02/24 01:57:34;;;;;;;16.00;2.33;;;3.30;99.90;;;1.57;86.98;100351.53;4944475;28;20054;-81
2023/02/24 02:00:18;;;;;;;22.58;2.53;;;3.30;99.90;;;1.60;85.89;100351.50;4976640;28;20048;-79
2023/02/24 02:02:51;;;;;;;21.00;1.85;;;3.30;99.90;;;1.70;85.76;100357.38;4977392;28;20113;-80
2023/02/24 02:05:17;;;;;;;18.95;2.08;;;3.30;99.90;;;1.64;85.73;100359.22;4933287;28;20041;-79
2023/02/24 02:07:44;;;;;;;22.33;2.55;;;3.30;99.90;;;1.74;86.35;100351.25;4990444;28;20025;-80
2023/02/24 02:10:15;;;;;;;22.08;2.60;;;3.40;99.90;;;1.77;85.74;100354.69;4976771;28;20033;-80
2023/02/24 02:12:44;;;;;;;12.55;2.05;;;3.40;99.90;;;1.67;84.94;100350.50;4983153;28;20037;-80
2023/02/24 02:15:19;;;;;;;6.35;1.08;;;3.30;99.90;;;1.61;84.72;100346.25;4985610;28;20037;-79
2023/02/24 02:18:31;;;;;;;21.40;2.10;;;3.40;99.90;;;1.78;84.80;100348.59;4995514;28;20096;-79
2023/02/24 02:21:35;;;;;;;14.07;1.65;;;3.40;99.90;;;1.72;84.55;100335.72;4957947;28;20126;-80
2023/02/24 02:24:28;;;;;;;17.52;1.85;;;3.40;99.90;;;1.78;84.41;100339.94;4989729;28;20077;-79
2023/02/24 02:27:40;;;;;;;16.95;1.90;;;3.40;99.90;;;1.82;83.78;100336.44;4966771;28;20382;-79
2023/02/24 02:30:43;;;;;;;9.63;1.55;;;3.40;99.90;;;1.79;84.15;100321.75;4990429;28;20033;-80
2023/02/24 02:33:20;;;;;;;16.23;2.08;;;3.50;99.90;;;1.87;84.56;100339.78;4971432;28;20494;-79
2023/02/24 02:36:21;;;;;;;19.10;2.28;;;3.50;99.90;;;1.92;84.83;100329.31;4955655;28;20033;-80
2023/02/24 02:38:56;;;;;;;26.40;2.97;;;3.60;99.90;;;1.97;84.86;100327.53;4985079;28;20528;-80
2023/02/24 02:42:04;;;;;;;28.02;2.63;;;3.60;99.90;;;2.02;85.65;100317.91;4977453;28;20041;-79
2023/02/24 02:45:18;;;;;;;16.73;1.95;;;3.60;99.90;;;1.98;85.42;100311.03;4972650;28;20034;-79
2023/02/24 02:48:05;;;;;;;30.45;2.72;;;3.60;99.90;;;2.01;84.77;100313.59;5002508;28;20044;-80
2023/02/24 02:50:46;;;;;;;17.17;2.95;;;3.60;99.90;;;2.03;85.25;100310.09;4981779;28;20033;-80
2023/02/24 02:53:30;;;;;;;25.50;3.20;;;3.60;99.90;;;2.10;85.14;100305.63;4985895;28;20030;-80
2023/02/24 02:56:10;;;;;;;14.63;2.10;;;3.70;99.90;;;2.14;85.18;100301.22;4978948;28;20072;-80
2023/02/24 02:58:44;;;;;;;26.23;2.10;;;3.70;99.90;;;2.13;85.09;100300.38;4965498;28;20042;-80
2023/02/24 03:01:31;;;;;;;27.67;2.83;;;3.70;99.90;;;2.14;84.86;100299.50;4970715;28;20037;-80
2023/02/24 03:04:06;;;;;;;28.85;2.72;;;3.70;99.90;;;2.18;85.24;100287.28;4968882;28;20033;-80
2023/02/24 03:06:40;;;;;;;24.38;2.33;;;3.70;99.90;;;2.14;85.14;100289.09;4960465;28;20030;-80
2023/02/24 03:09:18;;;;;;;24.88;2.63;;;3.70;99.90;;;2.16;84.85;100279.53;5008312;28;20033;-80
2023/02/24 03:11:53;;;;;;;24.15;2.45;;;3.80;99.90;;;2.17;84.77;100278.66;4971084;28;20143;-80
2023/02/24 03:14:25;;;;;;;29.73;2.22;;;3.70;99.90;;;2.19;84.39;100278.63;4938622;28;20041;-80
2023/02/24 03:16:58;;;;;;;22.85;2.50;;;3.70;99.90;;;2.21;84.97;100266.47;4962523;28;20042;-80
2023/02/24 03:19:38;;;;;;;19.55;2.40;;;3.80;99.90;;;2.24;84.83;100263.78;4921368;28;20105;-80
2023/02/24 03:22:24;;;;;;;25.45;3.33;;;3.80;99.90;;;2.28;84.79;100262.00;4919847;28;20049;-80
2023/02/24 03:24:50;;;;;;;24.00;2.72;;;3.80;99.90;;;2.29;85.05;100253.31;4977752;28;20047;-79
2023/02/24 03:27:29;;;;;;;24.20;2.78;;;3.80;99.90;;;2.30;84.87;100255.88;4941637;28;20473;-80
2023/02/24 03:30:25;;;;;;;27.30;2.83;;;3.80;99.90;;;2.33;85.25;100255.81;4954109;28;20567;-80
2023/02/24 03:33:07;;;;;;;21.63;2.38;;;3.90;99.90;;;2.33;85.16;100241.97;4980807;28;20026;-80
2023/02/24 03:35:40;;;;;;;22.05;2.80;;;3.90;99.90;;;2.31;85.49;100242.03;4985549;28;20381;-81
2023/02/24 03:38:08;;;;;;;24.77;2.78;;;3.90;99.90;;;2.29;86.41;100238.59;4983918;28;20064;-80
2023/02/24 03:40:37;;;;;;;31.20;3.30;;;3.90;99.90;;;2.28;86.13;100236.88;4963878;28;20078;-80
2023/02/24 03:43:28;;;;;;;19.85;2.35;;;3.90;99.90;;;2.30;86.88;100235.09;4958794;28;20117;-80
2023/02/24 03:45:56;;;;;;;25.42;2.65;;;3.90;99.90;;;2.29;87.07;100225.59;4964991;28;20080;-80
2023/02/24 03:48:29;;;;;;;30.45;2.65;;;3.80;99.90;;;2.28;86.90;100226.47;4952139;28;20045;-79
2023/02/24 03:50:58;;;;;;;22.27;2.72;;;3.80;99.90;;;2.23;87.05;100216.19;4953780;28;20033;-80
2023/02/24 03:53:35;;;;;;;23.52;2.42;;;3.80;99.90;;;2.23;86.81;100213.59;4988926;28;20049;-79
2023/02/24 03:56:26;;;;;;;28.70;2.38;;;3.80;99.90;;;2.23;86.94;100205.78;4998202;28;20047;-78
2023/02/24 03:59:24;;;;;;;22.55;2.90;;;3.80;99.90;;;2.25;86.51;100209.22;4975379;28;20140;-79
2023/02/24 04:01:57;;;;;;;28.63;2.95;;;3.80;99.90;;;2.24;86.78;100204.03;4996638;28;20053;-80
2023/02/24 04:04:42;;;;;;;29.92;2.45;;;3.80;99.90;;;2.20;86.08;100198.06;5003430;28;20041;-80
2023/02/24 04:07:16;;;;;;;24.30;3.05;;;3.80;99.90;;;2.22;86.87;100201.47;4987325;28;20092;-80
2023/02/24 04:10:03;;;;;;;23.85;2.67;;;3.80;99.90;;;2.23;86.69;100191.97;4978210;28;20069;-81
2023/02/24 04:12:41;;;;;;;17.80;2.38;;;3.40;99.90;;;2.22;86.72;100191.06;4977241;28;20111;-80
2023/02/24 04:15:10;;;;;;;12.50;2.13;;;3.80;99.90;;;2.21;86.30;100188.53;4968031;28;20073;-80
2023/02/24 04:18:16;;;;;;;19.63;2.83;;;3.80;99.90;;;2.19;86.58;100183.38;4978770;28;20033;-80
2023/02/24 04:20:48;;;;;;;16.98;2.15;;;3.80;99.90;;;2.17;86.44;100177.34;4956991;28;20037;-80
2023/02/24 04:23:21;;;;;;;24.35;2.00;;;3.70;99.90;;;2.18;86.47;100179.06;4966731;28;20038;-80
2023/02/24 04:25:52;;;;;;;20.65;2.50;;;3.70;99.90;;;2.18;86.71;100173.88;4937213;28;20043;-79
2023/02/24 04:28:26;;;;;;;23.85;2.17;;;3.70;99.90;;;2.17;86.58;100164.34;4951396;28;20065;-79
2023/02/24 04:30:59;;;;;;;26.65;2.15;;;3.70;99.90;;;2.16;86.51;100165.25;4986442;28;20030;-78
2023/02/24 04:33:30;;;;;;;16.92;2.28;;;3.70;99.90;;;2.16;86.60;100160.06;4994808;28;20036;-80
2023/02/24 04:35:56;;;;;;;26.13;2.47;;;3.70;99.90;;;2.19;86.55;100161.75;5003042;28;20084;-79
2023/02/24 04:38:22;;;;;;;19.02;2.35;;;3.70;99.90;;;2.22;86.39;100159.06;4950212;28;20038;-80
2023/02/24 04:40:48;;;;;;;29.38;2.35;;;3.70;99.90;;;2.21;86.41;100142.63;4993911;28;20482;-79
2023/02/24 04:43:15;;;;;;;24.15;1.85;;;3.70;99.90;;;2.19;86.40;100139.19;4960377;28;20032;-80
2023/02/24 04:45:50;;;;;;;33.67;3.95;;;3.70;99.90;;;2.19;86.05;100139.19;4909304;28;20073;-80
2023/02/24 04:48:18;;;;;;;24.48;2.45;;;3.70;99.90;;;2.19;86.26;100131.41;4982342;28;20042;-79
2023/02/24 04:50:53;;;;;;;21.48;2.65;;;3.70;99.90;;;2.20;86.33;100127.06;4969700;28;20055;-79
2023/02/24 04:53:26;;;;;;;16.10;1.67;;;3.80;99.90;;;2.20;85.93;100124.47;4978316;28;20068;-80
2023/02/24 04:55:55;;;;;;;23.98;2.80;;;3.80;99.90;;;2.19;86.06;100123.63;4956878;28;20276;-80
2023/02/24 04:58:28;;;;;;;18.20;1.98;;;3.80;99.90;;;2.18;85.95;100116.72;4948474;28;20041;-80
2023/02/24 05:00:56;;;;;;;19.25;1.65;;;3.70;99.90;;;2.15;85.83;100106.38;4983377;28;20490;-80
2023/02/24 05:03:26;;;;;;;21.30;2.17;;;3.70;99.90;;;2.16;85.71;100102.91;4971389;28;20537;-80
2023/02/24 05:06:01;;;;;;;19.63;2.15;;;3.70;99.90;;;2.14;85.66;100096.03;4960078;28;20037;-80
2023/02/24 05:08:29;;;;;;;14.45;1.80;;;3.70;99.90;;;2.17;85.33;100094.22;4984989;28;20029;-80
2023/02/24 05:10:57;;;;;;;19.67;2.33;;;3.70;99.90;;;2.15;84.95;100077.81;4980425;28;20422;-80
2023/02/24 05:13:31;;;;;;;33.70;2.65;;;3.70;99.90;;;2.17;85.17;100080.38;4975270;28;20119;-80
2023/02/24 05:16:07;;;;;;;16.98;1.98;;;3.80;99.90;;;2.16;85.12;100071.75;4954744;28;20737;-80
2023/02/24 05:18:35;;;;;;;28.13;2.45;;;3.70;99.90;;;2.15;85.43;100069.19;4944379;28;20041;-80
2023/02/24 05:23:58;;;;;;;24.13;2.50;;;3.70;99.90;;;2.14;85.13;100054.47;5009607;28;20131;-79
2023/02/24 05:26:24;;;;;;;18.95;2.03;;;3.70;99.90;;;2.10;85.12;100056.31;4966285;28;20034;-81
2023/02/24 05:28:56;;;;;;;20.52;2.35;;;3.80;99.90;;;2.13;85.29;100056.22;4960514;28;20025;-80
2023/02/24 05:31:27;;;;;;;27.55;3.60;;;3.70;99.90;;;2.12;85.25;100036.34;4984665;28;20724;-79
2023/02/24 05:34:06;;;;;;;30.55;2.30;;;3.80;99.90;;;2.09;85.29;100038.16;4976498;28;20116;-79
2023/02/24 05:36:39;;;;;;;17.85;2.65;;;3.70;99.90;;;2.11;85.01;100038.97;5003086;28;20046;-79
2023/02/24 05:39:07;;;;;;;21.67;1.92;;;3.70;99.90;;;2.08;85.53;100031.25;4937645;28;20100;-80
2023/02/24 05:41:37;;;;;;;15.82;2.17;;;3.70;99.90;;;2.08;85.60;100031.25;4931448;28;20047;-80
2023/02/24 05:44:09;;;;;;;19.05;1.75;;;3.70;99.90;;;2.09;85.64;100026.00;4926550;28;20092;-81
2023/02/24 05:46:46;;;;;;;28.08;2.38;;;3.70;99.90;;;2.10;85.63;100019.09;4947761;28;20508;-80
2023/02/24 05:49:22;;;;;;;15.65;2.10;;;3.70;99.90;;;2.08;85.69;100010.47;4943904;28;20048;-80
2023/02/24 05:51:55;;;;;;;18.42;1.98;;;3.70;99.90;;;2.10;85.85;100009.56;4980310;28;20039;-80
2023/02/24 05:54:36;;;;;;;25.05;1.98;;;3.70;99.90;;;2.10;85.90;100006.97;4964347;28;20042;-80
2023/02/24 05:57:16;;;;;;;20.60;1.77;;;3.70;99.90;;;2.09;85.81;100006.97;4976433;28;20065;-80
2023/02/24 05:59:43;;;;;;;13.90;2.10;;;3.70;99.90;;;2.08;86.02;99992.31;4940910;28;20041;-79
2023/02/24 06:02:20;;;;;;;26.35;2.17;;;3.70;99.90;;;2.09;86.26;99997.44;4906985;28;20611;-79
2023/02/24 06:04:52;;;;;;;27.00;2.72;;;3.70;99.90;;;2.07;86.08;99982.78;4942534;28;20053;-79
2023/02/24 06:07:24;;;;;;;15.20;1.92;;;3.70;99.90;;;2.06;86.25;99987.13;4962068;28;20033;-79
2023/02/24 06:09:55;;;;;;;21.17;2.40;;;3.70;99.90;;;2.06;86.49;99976.75;4938779;28;20055;-78
2023/02/24 06:12:26;;;;;;;21.20;2.45;;;3.70;99.90;;;2.09;86.42;99971.47;4981953;28;20049;-79
2023/02/24 06:14:52;;;;;;;23.70;2.40;;;3.70;99.90;;;2.07;86.46;99977.59;4940370;28;20100;-79
2023/02/24 06:17:19;;;;;;;20.30;2.30;;;3.70;99.90;;;2.05;86.26;99964.63;4960027;28;20076;-78
2023/02/24 06:19:50;;;;;;;29.02;2.30;;;3.70;99.90;;;2.07;86.51;99972.41;4960680;28;20046;-79
2023/02/24 06:22:22;;;;;;;19.75;1.85;;;3.70;99.90;;;2.11;86.56;99968.84;4944115;28;20093;-79
2023/02/24 06:24:49;;;;;;;14.40;1.70;;;3.70;99.90;;;2.12;86.34;99966.22;4956602;28;20057;-79
2023/02/24 06:27:23;;;;;;;16.35;1.85;;;3.70;99.90;;;2.15;86.55;99968.72;4970986;28;20044;-79
2023/02/24 06:29:52;;;;;;;19.83;2.50;;;3.80;99.90;;;2.15;86.63;99960.94;4973480;28;20037;-79
2023/02/24 06:32:29;;;;;;;13.65;1.48;;;3.80;99.90;;;2.16;86.66;99957.47;4962924;28;20041;-80
2023/02/24 06:34:56;;;;;;;25.27;2.10;;;3.80;99.90;;;2.23;86.28;99955.56;4935249;28;20042;-79
2023/02/24 06:37:22;;;;;;;22.77;2.00;;;3.80;99.90;;;2.20;86.28;99953.91;4981228;22;20045;-80
2023/02/24 06:39:47;;;;;;;18.70;1.70;;;3.80;99.90;;;2.26;86.29;99948.53;4954411;28;20625;-79
2023/02/24 06:42:22;;;;;;;16.90;2.58;;;3.80;99.90;;;2.28;86.09;99947.66;4941886;28;20036;-79
2023/02/24 06:44:49;;;;;;;20.73;1.92;;;3.90;99.90;;;2.29;86.49;99949.34;4958443;28;20046;-80
2023/02/24 06:47:20;;;;;;;12.32;1.40;;;3.90;99.90;;;2.30;86.35;99944.13;4973517;28;20045;-79
2023/02/24 06:49:48;;;;;;;18.75;2.30;;;3.90;99.90;;;2.31;86.22;99945.84;4905975;28;20507;-79
2023/02/24 06:52:17;;;;;;;18.52;1.48;;;3.90;99.90;;;2.25;86.37;99936.44;4937893;28;20109;-79
2023/02/24 06:54:43;;;;;;;21.45;2.42;;;3.90;99.90;;;2.34;86.26;99934.53;4959454;28;20041;-80
2023/02/24 06:57:14;;;;;;;13.38;1.55;;;4.00;99.90;;;2.37;86.28;99924.88;4965303;28;20033;-79
2023/02/24 06:59:41;;;;;;;13.48;1.40;;;4.00;99.90;;;2.40;86.17;99930.03;4927583;28;20506;-78
2023/02/24 07:02:09;;;;;;;12.25;1.48;;;4.00;99.90;;;2.44;86.25;99922.97;4958034;28;20514;-79
2023/02/24 07:04:42;;;;;;;15.80;1.42;;;4.00;99.90;;;2.39;86.07;99923.09;4946589;28;20630;-80
2023/02/24 07:07:09;;;;;;;17.48;1.63;;;4.10;99.90;;;2.48;86.54;99927.19;4959746;28;20089;-80
2023/02/24 07:09:35;;;;;;;16.00;2.35;;;4.10;99.90;;;2.48;86.36;99919.41;4953054;28;20892;-79
2023/02/24 07:12:03;;;;;;;12.93;1.48;;;4.10;99.90;;;2.49;86.66;99917.69;4940028;28;20075;-79
2023/02/24 07:14:37;;;;;;;14.70;1.60;;;4.10;99.90;;;2.52;86.78;99917.59;4953259;28;20034;-79
2023/02/24 07:17:04;;;;;;;23.15;2.50;;;4.10;99.90;;;2.51;86.78;99911.53;4962742;28;20033;-79
2023/02/24 07:19:31;;;;;;;19.70;2.72;;;4.10;99.90;;;2.52;87.02;99904.59;4969159;28;20399;-78
2023/02/24 07:22:02;;;;;;;13.38;2.08;;;4.20;99.90;;;2.58;86.93;99907.03;4938153;28;20026;-79
2023/02/24 07:24:44;;;;;;;13.60;1.92;;;4.20;99.90;;;2.55;87.16;99905.38;4965142;28;20423;-79
2023/02/24 07:27:20;;;;;;;18.45;1.80;;;4.20;99.90;;;2.61;87.15;99897.41;4954111;28;20511;-79
2023/02/24 07:29:48;;;;;;;22.17;2.38;;;4.20;99.90;;;2.62;87.39;99899.09;4921978;28;20038;-79
2023/02/24 07:32:16;;;;;;;14.93;3.63;;;4.20;99.90;;;2.59;87.49;99887.94;4956509;28;20030;-79
2023/02/24 07:34:43;;;;;;;18.70;2.60;;;4.20;99.90;;;2.65;87.50;99879.97;4972634;28;20034;-79
2023/02/24 07:37:13;;;;;;;10.98;2.78;;;4.30;99.90;;;2.69;87.52;99870.34;4995458;23;20040;-79
2023/02/24 07:39:41;;;;;;;10.70;1.73;;;4.30;99.90;;;2.65;88.06;99870.41;4924123;28;20514;-78
2023/02/24 07:42:12;;;;;;;14.65;2.20;;;4.30;99.90;;;2.70;87.77;99870.31;4922856;28;20049;-81
2023/02/24 07:44:48;;;;;;;;;;;;;;;;;;;;;
2023/02/24 07:47:14;;;;;;;14.52;2.38;;;4.30;99.90;;;2.79;88.25;99858.81;4944330;28;20037;-80
2023/02/24 07:49:45;;;;;;;15.90;1.95;;;4.40;99.90;;;2.84;88.09;99851.72;4935002;28;20089;-79
2023/02/24 07:52:11;;;;;;;20.65;2.03;;;4.40;99.90;;;2.90;87.93;99848.94;4894758;28;20026;-79
2023/02/24 07:54:38;;;;;;;15.65;2.53;;;4.40;99.90;;;2.90;88.37;99848.94;4914573;28;20055;-79
2023/02/24 07:57:12;;;;;;;13.25;2.20;;;4.40;99.90;;;2.89;88.05;99842.03;4953256;22;20796;-79
2023/02/24 07:59:38;;;;;;;13.95;1.40;;;4.50;99.90;;;2.91;87.98;99832.44;4884570;28;20059;-79
2023/02/24 08:02:06;;;;;;;15.93;2.30;;;4.50;99.90;;;2.99;87.94;99824.41;4931211;28;20050;-79
2023/02/24 08:04:32;;;;;;;13.20;1.52;;;4.50;99.90;;;2.96;88.09;99827.09;4939698;28;20157;-80
2023/02/24 08:07:01;;;;;;;16.35;1.85;;;4.50;99.90;;;2.94;87.77;99823.69;4935593;28;20046;-79
2023/02/24 08:12:20;;;;;;;12.00;1.70;;;4.60;99.90;;;3.04;87.94;99818.16;4929897;28;20085;-79
2023/02/24 08:14:58;;;;;;;19.73;2.00;;;4.60;99.90;;;3.01;87.79;99805.25;4925882;28;20495;-79
2023/02/24 08:17:34;;;;;;;18.13;1.63;;;4.60;99.90;;;3.05;87.74;99803.44;4932453;28;20062;-80
2023/02/24 08:22:43;;;;;;;17.85;2.20;;;4.60;99.90;;;3.05;87.35;99796.47;4944993;28;20036;-80
2023/02/24 08:25:18;;;;;;;13.18;1.50;;;4.60;99.90;;;3.03;87.30;99795.66;4908461;28;20038;-80
2023/02/24 08:27:56;;;;;;;13.45;1.90;;;4.60;99.90;;;3.00;87.28;99782.78;4933871;28;20447;-79
2023/02/24 08:30:27;;;;;;;12.95;2.03;;;4.70;99.90;;;3.09;87.04;99786.84;4916742;28;20139;-79
2023/02/24 08:32:59;;;;;;;18.50;2.70;;;4.70;99.90;;;3.11;86.92;99782.44;4932598;28;20456;-79
2023/02/24 08:35:34;;;;;;;18.85;2.55;;;4.70;99.90;;;3.12;86.81;99775.47;4931044;28;20035;-80
2023/02/24 08:38:13;;;;;;;20.10;2.10;;;4.70;99.90;;;3.16;87.28;99758.88;4915998;28;20045;-80
2023/02/24 08:40:51;;;;;;;23.55;2.20;;;4.70;99.90;;;3.11;87.18;99766.84;4909769;28;20042;-80
2023/02/24 08:46:11;;;;;;;11.73;1.58;;;4.70;99.90;;;3.19;86.90;99761.38;4936314;28;20200;-80
2023/02/24 08:48:54;;;;;;;12.57;1.77;;;4.80;99.90;;;3.14;86.95;99747.66;4925867;28;20384;-79
2023/02/24 08:51:27;;;;;;;15.30;2.10;;;4.70;99.90;;;3.13;87.21;99743.34;4965721;28;20037;-79
2023/02/24 08:54:02;;;;;;;16.83;1.77;;;4.70;99.90;;;3.06;87.50;99735.75;4917648;28;20113;-80
2023/02/24 08:56:33;;;;;;;11.07;2.03;;;4.70;99.90;;;3.07;87.80;99737.47;4931762;28;20038;-80
2023/02/24 08:59:05;;;;;;;14.07;1.52;;;4.70;99.90;;;3.07;88.09;99731.41;4947471;28;20039;-79
2023/02/24 09:01:37;;;;;;;12.63;1.73;;;4.70;99.90;;;3.01;88.55;99727.25;4951977;28;20034;-79
2023/02/24 09:04:18;;;;;;;22.02;2.15;;;4.60;99.90;;;3.04;88.40;99718.47;4921791;28;20711;-81
2023/02/24 09:06:56;;;;;;;19.40;2.28;;;4.60;99.90;;;2.96;89.31;99715.28;4935092;28;20041;-80
2023/02/24 09:09:24;;;;;;;13.52;2.10;;;4.60;99.90;;;2.95;89.78;99711.81;4925995;28;20136;-81
2023/02/24 09:11:56;;;;;;;14.70;2.03;;;4.60;99.90;;;2.89;89.98;99704.22;4905421;28;20042;-80
2023/02/24 09:14:38;;;;;;;18.58;1.83;;;4.60;99.90;;;2.87;90.65;99690.41;4938492;28;20038;-80
2023/02/24 09:17:13;;;;;;;13.95;1.52;;;4.60;99.90;;;2.92;90.59;99685.94;4942863;28;20065;-79
2023/02/24 09:22:56;;;;;;;12.52;1.63;;;4.50;99.90;;;2.83;91.70;99681.88;4936620;28;20069;-79
2023/02/24 09:25:24;;;;;;;15.73;2.30;;;4.50;99.90;;;2.89;92.23;99678.22;4946611;28;20061;-80
2023/02/24 09:28:09;;;;;;;17.10;1.90;;;4.50;99.90;;;2.83;92.46;99674.06;4950206;28;20520;-80
2023/02/24 09:30:49;;;;;;;14.18;1.90;;;4.50;99.90;;;2.82;92.52;99666.31;4917701;28;20037;-80
2023/02/24 09:33:27;;;;;;;19.15;2.15;;;4.40;99.90;;;2.81;93.06;99662.88;4920542;28;20043;-79
2023/02/24 09:36:09;;;;;;;13.77;2.10;;;4.40;99.90;;;2.79;93.47;99659.47;4948592;28;20035;-80
2023/02/24 09:44:40;;;;;;;8.93;1.73;;;4.40;99.90;;;2.74;94.86;99644.91;4973596;28;20048;-79
2023/02/24 09:50:19;;;;;;;13.77;2.50;;;4.30;99.90;;;2.60;95.87;99630.59;4953939;28;20077;-79
2023/02/24 09:53:16;;;;;;;16.42;2.13;;;4.30;99.90;;;2.55;96.26;99621.22;4958315;28;21062;-78
2023/02/24 09:55:59;;;;;;;14.00;1.90;;;4.20;99.90;;;2.47;96.56;99618.88;4970337;28;20042;-78
2023/02/24 09:58:49;;;;;;;13.05;1.92;;;4.20;99.90;;;2.38;97.38;99619.19;4985729;23;20094;-78
2023/02/24 10:01:34;;;;;;;18.83;2.25;;;4.10;99.90;;;2.39;97.20;99606.13;5007549;28;20381;-78
2023/02/24 10:04:08;;;;;;;10.35;1.70;;;4.10;99.90;;;2.27;97.91;99596.13;5024235;28;20060;-78
2023/02/24 10:06:43;;;;;;;13.25;2.22;;;4.10;99.90;;;2.31;98.38;99589.94;5001563;28;20037;-79
2023/02/24 10:09:54;;;;;;;15.93;2.13;;;4.00;99.90;;;2.14;98.73;99585.25;5008372;28;20026;-81
2023/02/24 10:12:38;;;;;;;8.80;1.85;;;3.90;99.90;;;2.12;99.17;99576.66;5012129;28;20028;-78
2023/02/24 10:15:59;;;;;;;;;;;;;;;;;;;;;
2023/02/24 10:18:38;;;;;;;12.23;2.05;;;;;;;2.18;100.00;99560.03;4957375;22;20102;-81
2023/02/24 10:21:59;;;;;;;9.23;1.88;;;3.90;99.90;;;2.19;100.00;99552.19;4951535;28;20039;-81
2023/02/24 10:24:47;;;;;;;9.73;2.50;;;3.90;99.90;;;2.12;100.00;99557.66;4969139;28;20038;-80
2023/02/24 10:27:38;;;;;;;13.25;2.20;;;3.80;99.90;;;2.14;100.00;99542.84;4979560;28;20082;-80
2023/02/24 10:30:49;;;;;;;4.70;2.05;;;3.80;99.90;;;2.11;100.00;99536.00;4967258;28;20533;-81
2023/02/24 10:33:24;;;;;;;12.07;2.30;;;3.80;99.90;;;2.05;100.00;99533.59;4975811;28;20049;-80
2023/02/24 10:36:10;;;;;;;11.05;2.70;;;3.80;99.90;;;2.04;100.00;99527.56;4969828;28;20034;-81
2023/02/24 10:38:49;;;;;;;7.45;2.22;;;3.70;99.90;;;2.03;100.00;99525.00;4989739;28;20045;-80
2023/02/24 10:41:28;;;;;;;10.82;2.47;;;3.70;99.90;;;1.98;100.00;99517.34;4970422;28;20107;-80
2023/02/24 10:44:03;;;;;;;9.15;2.55;;;3.70;99.90;;;2.00;100.00;99517.31;4980297;28;20065;-81
2023/02/24 10:46:37;;;;;;;6.57;2.38;;;3.70;99.90;;;1.92;100.00;99494.16;4961019;28;20030;-80
2023/02/24 10:49:08;;;;;;;7.70;2.67;;;3.60;99.90;;;1.82;100.00;99491.03;4959400;28;20039;-77
2023/02/24 10:51:46;;;;;;;11.23;2.90;;;3.60;99.90;;;1.87;100.00;99487.44;4966604;28;20115;-80
2023/02/24 10:54:43;;;;;;;5.68;2.30;;;3.60;99.90;;;1.83;100.00;99478.88;4956664;28;20648;-81
2023/02/24 10:57:17;;;;;;;7.30;2.42;;;3.60;99.90;;;1.83;100.00;99473.69;4987389;23;20656;-78
2023/02/24 11:03:09;;;;;;;9.18;3.00;;;3.50;99.90;;;1.77;100.00;99459.19;4974219;28;20468;-78
2023/02/24 11:08:42;;;;;;;7.65;2.40;;;3.50;99.90;;;1.72;100.00;99445.47;4982683;28;20621;-78
2023/02/24 11:11:29;;;;;;;8.45;2.90;;;3.50;99.90;;;1.81;100.00;99449.53;4992311;28;20040;-77
2023/02/24 11:17:14;;;;;;;6.20;2.40;;;3.50;99.90;;;1.72;100.00;99437.69;4969684;22;20045;-80
2023/02/24 11:20:26;;;;;;;8.73;2.78;;;3.40;99.90;;;1.72;100.00;99426.47;4969348;28;20045;-79
2023/02/24 11:22:54;;;;;;;7.53;2.38;;;3.50;99.90;;;1.75;100.00;99423.75;4994974;28;20057;-79
2023/02/24 11:25:36;;;;;;;3.95;1.83;;;3.40;99.90;;;1.74;100.00;99420.31;4923654;28;20038;-81
2023/02/24 11:28:47;;;;;;;4.13;2.22;;;3.50;99.90;;;1.77;100.00;99404.69;4878489;28;20075;-78
2023/02/24 11:31:28;;;;;;;6.95;2.45;;;3.50;99.90;;;1.75;100.00;99401.28;4891246;28;20040;-80
2023/02/24 11:38:49;;;;;;;;;;;;;;;;;;;;;
2023/02/24 11:40:59;;;;;;;5.10;2.38;;;3.50;99.90;;;1.80;100.00;99367.38;4873215;29;20084;-79
2023/02/24 11:43:38;;;;;;;3.13;2.10;;;3.50;99.90;;;1.85;100.00;99368.91;4893434;28;20039;-80